sensor_id;sensor_type;location;lat;lon;timestamp;P1;durP1;ratioP1;P2;durP2;ratioP2
60257;SDS011;46115;44.484;11.314;2022-12-18T00:02:55;8.00;;;6.28;;
60257;SDS011;46115;44.484;11.314;2022-12-18T00:06:58;9.27;;;7.32;;
60257;SDS011;46115;44.484;11.314;2022-12-18T00:15:06;13.27;;;6.47;;
60257;SDS011;46115;44.484;11.314;2022-12-18T00:19:09;7.95;;;6.53;;
60257;SDS011;46115;44.484;11.314;2022-12-18T00:23:12;10.93;;;6.35;;
60257;SDS011;46115;44.484;11.314;2022-12-18T00:31:19;9.48;;;6.40;;
60257;SDS011;46115;44.484;11.314;2022-12-18T00:35:22;9.40;;;6.68;;
60257;SDS011;46115;44.484;11.314;2022-12-18T00:39:24;11.50;;;6.57;;
60257;SDS011;46115;44.484;11.314;2022-12-18T00:43:28;10.75;;;6.45;;
60257;SDS011;46115;44.484;11.314;2022-12-18T00:47:30;8.43;;;6.72;;
60257;SDS011;46115;44.484;11.314;2022-12-18T00:55:36;10.77;;;6.75;;
60257;SDS011;46115;44.484;11.314;2022-12-18T00:59:40;8.52;;;6.80;;
60257;SDS011;46115;44.484;11.314;2022-12-18T01:03:43;8.88;;;6.45;;
60257;SDS011;46115;44.484;11.314;2022-12-18T01:07:45;10.57;;;6.10;;
60257;SDS011;46115;44.484;11.314;2022-12-18T01:15:51;8.30;;;6.63;;
60257;SDS011;46115;44.484;11.314;2022-12-18T01:19:54;8.20;;;6.50;;
60257;SDS011;46115;44.484;11.314;2022-12-18T01:27:58;9.13;;;6.35;;
60257;SDS011;46115;44.484;11.314;2022-12-18T01:32:02;8.65;;;6.47;;
60257;SDS011;46115;44.484;11.314;2022-12-18T01:36:05;9.02;;;6.60;;
60257;SDS011;46115;44.484;11.314;2022-12-18T01:40:08;8.45;;;6.65;;
60257;SDS011;46115;44.484;11.314;2022-12-18T01:48:49;7.38;;;6.28;;
60257;SDS011;46115;44.484;11.314;2022-12-18T01:52:59;9.03;;;7.00;;
60257;SDS011;46115;44.484;11.314;2022-12-18T01:57:05;7.15;;;6.43;;
60257;SDS011;46115;44.484;11.314;2022-12-18T02:01:08;7.60;;;6.50;;
60257;SDS011;46115;44.484;11.314;2022-12-18T02:05:12;12.10;;;6.53;;
60257;SDS011;46115;44.484;11.314;2022-12-18T02:09:19;8.07;;;6.57;;
60257;SDS011;46115;44.484;11.314;2022-12-18T02:13:26;10.07;;;7.05;;
60257;SDS011;46115;44.484;11.314;2022-12-18T02:17:35;8.80;;;6.38;;
60257;SDS011;46115;44.484;11.314;2022-12-18T02:21:46;9.70;;;7.55;;
60257;SDS011;46115;44.484;11.314;2022-12-18T02:26:09;9.40;;;6.95;;
60257;SDS011;46115;44.484;11.314;2022-12-18T02:30:18;8.93;;;7.00;;
60257;SDS011;46115;44.484;11.314;2022-12-18T02:34:22;10.65;;;7.22;;
60257;SDS011;46115;44.484;11.314;2022-12-18T02:38:29;10.32;;;7.20;;
60257;SDS011;46115;44.484;11.314;2022-12-18T02:42:41;14.18;;;7.38;;
60257;SDS011;46115;44.484;11.314;2022-12-18T02:46:46;12.93;;;7.70;;
60257;SDS011;46115;44.484;11.314;2022-12-18T02:50:54;11.57;;;7.97;;
60257;SDS011;46115;44.484;11.314;2022-12-18T02:55:08;22.60;;;8.38;;
60257;SDS011;46115;44.484;11.314;2022-12-18T02:59:23;10.60;;;7.28;;
60257;SDS011;46115;44.484;11.314;2022-12-18T03:07:38;9.13;;;7.53;;
60257;SDS011;46115;44.484;11.314;2022-12-18T03:11:48;8.35;;;7.45;;
60257;SDS011;46115;44.484;11.314;2022-12-18T03:16:19;10.15;;;7.40;;
60257;SDS011;46115;44.484;11.314;2022-12-18T03:20:26;9.20;;;7.18;;
60257;SDS011;46115;44.484;11.314;2022-12-18T03:24:33;8.68;;;6.93;;
60257;SDS011;46115;44.484;11.314;2022-12-18T03:28:42;10.02;;;7.43;;
60257;SDS011;46115;44.484;11.314;2022-12-18T03:32:50;8.25;;;6.78;;
60257;SDS011;46115;44.484;11.314;2022-12-18T03:36:56;9.70;;;6.80;;
60257;SDS011;46115;44.484;11.314;2022-12-18T03:40:59;10.27;;;7.38;;
60257;SDS011;46115;44.484;11.314;2022-12-18T03:45:18;10.15;;;7.68;;
60257;SDS011;46115;44.484;11.314;2022-12-18T03:49:27;12.02;;;7.20;;
60257;SDS011;46115;44.484;11.314;2022-12-18T03:53:36;8.20;;;7.07;;
60257;SDS011;46115;44.484;11.314;2022-12-18T03:57:46;8.55;;;7.30;;
60257;SDS011;46115;44.484;11.314;2022-12-18T04:01:50;11.35;;;8.80;;
60257;SDS011;46115;44.484;11.314;2022-12-18T04:05:56;10.27;;;7.45;;
60257;SDS011;46115;44.484;11.314;2022-12-18T04:10:02;9.60;;;7.60;;
60257;SDS011;46115;44.484;11.314;2022-12-18T04:14:08;10.35;;;7.85;;
60257;SDS011;46115;44.484;11.314;2022-12-18T04:18:11;10.18;;;7.63;;
60257;SDS011;46115;44.484;11.314;2022-12-18T04:22:18;11.05;;;8.05;;
60257;SDS011;46115;44.484;11.314;2022-12-18T04:26:25;11.23;;;7.78;;
60257;SDS011;46115;44.484;11.314;2022-12-18T04:30:43;11.50;;;7.93;;
60257;SDS011;46115;44.484;11.314;2022-12-18T04:34:45;11.55;;;7.90;;
60257;SDS011;46115;44.484;11.314;2022-12-18T04:42:52;10.20;;;7.40;;
60257;SDS011;46115;44.484;11.314;2022-12-18T04:46:54;15.75;;;7.43;;
60257;SDS011;46115;44.484;11.314;2022-12-18T04:50:58;10.25;;;7.57;;
60257;SDS011;46115;44.484;11.314;2022-12-18T04:55:02;10.15;;;7.75;;
60257;SDS011;46115;44.484;11.314;2022-12-18T04:59:04;10.73;;;8.10;;
60257;SDS011;46115;44.484;11.314;2022-12-18T05:03:07;10.45;;;7.45;;
60257;SDS011;46115;44.484;11.314;2022-12-18T05:07:10;11.05;;;8.10;;
60257;SDS011;46115;44.484;11.314;2022-12-18T05:15:16;9.00;;;7.32;;
60257;SDS011;46115;44.484;11.314;2022-12-18T05:23:21;10.18;;;7.60;;
60257;SDS011;46115;44.484;11.314;2022-12-18T05:27:26;9.02;;;7.00;;
60257;SDS011;46115;44.484;11.314;2022-12-18T05:31:28;15.65;;;7.68;;
60257;SDS011;46115;44.484;11.314;2022-12-18T05:35:31;12.00;;;6.97;;
60257;SDS011;46115;44.484;11.314;2022-12-18T05:43:37;10.75;;;7.30;;
60257;SDS011;46115;44.484;11.314;2022-12-18T05:47:40;9.35;;;7.43;;
60257;SDS011;46115;44.484;11.314;2022-12-18T05:55:45;9.00;;;7.05;;
60257;SDS011;46115;44.484;11.314;2022-12-18T05:59:49;10.70;;;7.43;;
60257;SDS011;46115;44.484;11.314;2022-12-18T06:03:52;11.38;;;7.45;;
60257;SDS011;46115;44.484;11.314;2022-12-18T06:07:54;9.80;;;6.90;;
60257;SDS011;46115;44.484;11.314;2022-12-18T06:11:57;9.00;;;6.65;;
60257;SDS011;46115;44.484;11.314;2022-12-18T06:16:02;10.18;;;7.00;;
60257;SDS011;46115;44.484;11.314;2022-12-18T06:20:06;9.45;;;7.13;;
60257;SDS011;46115;44.484;11.314;2022-12-18T06:24:09;9.73;;;7.32;;
60257;SDS011;46115;44.484;11.314;2022-12-18T06:28:11;8.82;;;7.07;;
60257;SDS011;46115;44.484;11.314;2022-12-18T06:32:15;8.50;;;6.53;;
60257;SDS011;46115;44.484;11.314;2022-12-18T06:36:18;8.45;;;6.55;;
60257;SDS011;46115;44.484;11.314;2022-12-18T06:40:20;10.25;;;7.05;;
60257;SDS011;46115;44.484;11.314;2022-12-18T06:44:22;11.23;;;6.88;;
60257;SDS011;46115;44.484;11.314;2022-12-18T06:48:26;10.07;;;6.82;;
60257;SDS011;46115;44.484;11.314;2022-12-18T06:52:31;9.50;;;6.97;;
60257;SDS011;46115;44.484;11.314;2022-12-18T06:56:33;10.18;;;7.38;;
60257;SDS011;46115;44.484;11.314;2022-12-18T07:00:36;9.10;;;7.15;;
60257;SDS011;46115;44.484;11.314;2022-12-18T07:08:42;10.13;;;7.10;;
60257;SDS011;46115;44.484;11.314;2022-12-18T07:12:44;9.18;;;7.00;;
60257;SDS011;46115;44.484;11.314;2022-12-18T07:20:50;9.32;;;7.18;;
60257;SDS011;46115;44.484;11.314;2022-12-18T07:24:52;8.00;;;6.68;;
60257;SDS011;46115;44.484;11.314;2022-12-18T07:28:57;8.88;;;6.97;;
60257;SDS011;46115;44.484;11.314;2022-12-18T07:32:59;8.38;;;6.60;;
60257;SDS011;46115;44.484;11.314;2022-12-18T07:41:06;9.57;;;6.95;;
60257;SDS011;46115;44.484;11.314;2022-12-18T07:45:10;10.02;;;6.80;;
60257;SDS011;46115;44.484;11.314;2022-12-18T07:49:12;10.75;;;7.13;;
60257;SDS011;46115;44.484;11.314;2022-12-18T07:57:18;9.07;;;7.00;;
60257;SDS011;46115;44.484;11.314;2022-12-18T08:05:22;7.78;;;6.65;;
60257;SDS011;46115;44.484;11.314;2022-12-18T08:09:26;8.10;;;6.40;;
60257;SDS011;46115;44.484;11.314;2022-12-18T08:13:29;7.50;;;6.20;;
60257;SDS011;46115;44.484;11.314;2022-12-18T08:17:31;7.45;;;6.38;;
60257;SDS011;46115;44.484;11.314;2022-12-18T08:21:33;9.65;;;6.30;;
60257;SDS011;46115;44.484;11.314;2022-12-18T08:29:39;8.93;;;7.13;;
60257;SDS011;46115;44.484;11.314;2022-12-18T08:33:42;7.57;;;6.78;;
60257;SDS011;46115;44.484;11.314;2022-12-18T08:37:44;7.90;;;6.20;;
60257;SDS011;46115;44.484;11.314;2022-12-18T08:41:48;7.38;;;6.55;;
60257;SDS011;46115;44.484;11.314;2022-12-18T08:46:05;6.85;;;6.25;;
60257;SDS011;46115;44.484;11.314;2022-12-18T08:50:08;7.25;;;6.20;;
60257;SDS011;46115;44.484;11.314;2022-12-18T08:54:12;8.02;;;7.20;;
60257;SDS011;46115;44.484;11.314;2022-12-18T08:58:16;7.25;;;6.50;;
60257;SDS011;46115;44.484;11.314;2022-12-18T09:02:18;7.53;;;6.60;;
60257;SDS011;46115;44.484;11.314;2022-12-18T09:06:21;7.07;;;6.38;;
60257;SDS011;46115;44.484;11.314;2022-12-18T09:10:24;7.25;;;6.55;;
60257;SDS011;46115;44.484;11.314;2022-12-18T09:14:28;10.23;;;7.40;;
60257;SDS011;46115;44.484;11.314;2022-12-18T09:18:30;8.82;;;7.90;;
60257;SDS011;46115;44.484;11.314;2022-12-18T09:22:32;8.30;;;7.50;;
60257;SDS011;46115;44.484;11.314;2022-12-18T09:26:35;9.00;;;8.10;;
60257;SDS011;46115;44.484;11.314;2022-12-18T09:30:39;9.13;;;8.23;;
60257;SDS011;46115;44.484;11.314;2022-12-18T09:34:42;10.13;;;8.07;;
60257;SDS011;46115;44.484;11.314;2022-12-18T09:38:44;9.70;;;8.20;;
60257;SDS011;46115;44.484;11.314;2022-12-18T09:42:48;9.35;;;8.05;;
60257;SDS011;46115;44.484;11.314;2022-12-18T09:47:00;13.10;;;8.45;;
60257;SDS011;46115;44.484;11.314;2022-12-18T09:51:10;9.98;;;8.20;;
60257;SDS011;46115;44.484;11.314;2022-12-18T09:55:20;10.00;;;8.00;;
60257;SDS011;46115;44.484;11.314;2022-12-18T09:59:27;12.85;;;8.32;;
60257;SDS011;46115;44.484;11.314;2022-12-18T10:03:35;15.85;;;9.27;;
60257;SDS011;46115;44.484;11.314;2022-12-18T10:07:43;9.45;;;8.23;;
60257;SDS011;46115;44.484;11.314;2022-12-18T10:11:53;9.65;;;7.88;;
60257;SDS011;46115;44.484;11.314;2022-12-18T10:16:08;10.63;;;8.27;;
60257;SDS011;46115;44.484;11.314;2022-12-18T10:20:17;11.57;;;9.05;;
60257;SDS011;46115;44.484;11.314;2022-12-18T10:24:28;14.98;;;9.00;;
60257;SDS011;46115;44.484;11.314;2022-12-18T10:28:36;9.20;;;7.88;;
60257;SDS011;46115;44.484;11.314;2022-12-18T10:32:40;9.77;;;7.82;;
60257;SDS011;46115;44.484;11.314;2022-12-18T10:36:44;11.73;;;8.10;;
60257;SDS011;46115;44.484;11.314;2022-12-18T10:40:50;9.68;;;8.00;;
60257;SDS011;46115;44.484;11.314;2022-12-18T10:44:55;10.35;;;8.27;;
60257;SDS011;46115;44.484;11.314;2022-12-18T10:49:03;13.07;;;8.27;;
60257;SDS011;46115;44.484;11.314;2022-12-18T10:53:13;11.32;;;8.15;;
60257;SDS011;46115;44.484;11.314;2022-12-18T10:57:29;21.83;;;9.68;;
60257;SDS011;46115;44.484;11.314;2022-12-18T11:01:45;12.65;;;8.02;;
60257;SDS011;46115;44.484;11.314;2022-12-18T11:05:49;11.10;;;8.07;;
60257;SDS011;46115;44.484;11.314;2022-12-18T11:10:14;11.00;;;8.38;;
60257;SDS011;46115;44.484;11.314;2022-12-18T11:14:21;13.02;;;9.20;;
60257;SDS011;46115;44.484;11.314;2022-12-18T11:18:27;10.57;;;8.70;;
60257;SDS011;46115;44.484;11.314;2022-12-18T11:22:31;11.40;;;8.35;;
60257;SDS011;46115;44.484;11.314;2022-12-18T11:26:37;10.60;;;7.95;;
60257;SDS011;46115;44.484;11.314;2022-12-18T11:30:40;11.25;;;8.38;;
60257;SDS011;46115;44.484;11.314;2022-12-18T11:34:44;11.27;;;8.30;;
60257;SDS011;46115;44.484;11.314;2022-12-18T11:38:48;12.38;;;9.15;;
60257;SDS011;46115;44.484;11.314;2022-12-18T11:42:56;12.43;;;8.40;;
60257;SDS011;46115;44.484;11.314;2022-12-18T11:47:08;11.98;;;9.10;;
60257;SDS011;46115;44.484;11.314;2022-12-18T11:51:18;11.30;;;8.40;;
60257;SDS011;46115;44.484;11.314;2022-12-18T11:55:30;11.40;;;8.50;;
60257;SDS011;46115;44.484;11.314;2022-12-18T11:59:40;12.50;;;8.43;;
60257;SDS011;46115;44.484;11.314;2022-12-18T12:03:59;12.30;;;8.60;;
60257;SDS011;46115;44.484;11.314;2022-12-18T12:08:36;9.57;;;7.68;;
60257;SDS011;46115;44.484;11.314;2022-12-18T12:13:02;9.93;;;7.35;;
60257;SDS011;46115;44.484;11.314;2022-12-18T12:17:20;12.45;;;8.60;;
60257;SDS011;46115;44.484;11.314;2022-12-18T12:21:35;11.85;;;8.02;;
60257;SDS011;46115;44.484;11.314;2022-12-18T12:25:43;8.88;;;7.43;;
60257;SDS011;46115;44.484;11.314;2022-12-18T12:29:55;9.63;;;7.38;;
60257;SDS011;46115;44.484;11.314;2022-12-18T12:34:07;17.80;;;7.40;;
60257;SDS011;46115;44.484;11.314;2022-12-18T12:38:20;10.82;;;7.72;;
60257;SDS011;46115;44.484;11.314;2022-12-18T12:42:29;11.45;;;7.95;;
60257;SDS011;46115;44.484;11.314;2022-12-18T12:46:55;9.80;;;7.45;;
60257;SDS011;46115;44.484;11.314;2022-12-18T12:51:07;11.25;;;8.40;;
60257;SDS011;46115;44.484;11.314;2022-12-18T12:55:15;10.95;;;7.80;;
60257;SDS011;46115;44.484;11.314;2022-12-18T12:59:22;11.98;;;8.52;;
60257;SDS011;46115;44.484;11.314;2022-12-18T13:03:32;11.80;;;8.48;;
60257;SDS011;46115;44.484;11.314;2022-12-18T13:07:45;11.88;;;8.50;;
60257;SDS011;46115;44.484;11.314;2022-12-18T13:11:52;13.70;;;8.90;;
60257;SDS011;46115;44.484;11.314;2022-12-18T13:16:11;14.68;;;8.88;;
60257;SDS011;46115;44.484;11.314;2022-12-18T13:20:14;13.52;;;9.00;;
60257;SDS011;46115;44.484;11.314;2022-12-18T13:24:23;12.75;;;9.27;;
60257;SDS011;46115;44.484;11.314;2022-12-18T13:32:57;13.10;;;9.23;;
60257;SDS011;46115;44.484;11.314;2022-12-18T13:37:43;12.05;;;9.07;;
60257;SDS011;46115;44.484;11.314;2022-12-18T13:41:54;14.80;;;9.80;;
60257;SDS011;46115;44.484;11.314;2022-12-18T13:47:24;10.95;;;9.23;;
60257;SDS011;46115;44.484;11.314;2022-12-18T13:51:31;11.32;;;9.43;;
60257;SDS011;46115;44.484;11.314;2022-12-18T13:55:34;13.18;;;9.38;;
60257;SDS011;46115;44.484;11.314;2022-12-18T13:59:39;13.32;;;10.23;;
60257;SDS011;46115;44.484;11.314;2022-12-18T14:03:41;13.77;;;9.63;;
60257;SDS011;46115;44.484;11.314;2022-12-18T14:07:44;13.93;;;10.63;;
60257;SDS011;46115;44.484;11.314;2022-12-18T14:11:47;13.23;;;10.18;;
60257;SDS011;46115;44.484;11.314;2022-12-18T14:15:51;14.05;;;10.15;;
60257;SDS011;46115;44.484;11.314;2022-12-18T14:19:55;13.52;;;10.43;;
60257;SDS011;46115;44.484;11.314;2022-12-18T14:24:06;13.75;;;10.68;;
60257;SDS011;46115;44.484;11.314;2022-12-18T14:28:15;12.90;;;10.02;;
60257;SDS011;46115;44.484;11.314;2022-12-18T14:32:19;13.52;;;11.00;;
60257;SDS011;46115;44.484;11.314;2022-12-18T14:36:23;13.75;;;10.60;;
60257;SDS011;46115;44.484;11.314;2022-12-18T14:40:27;13.77;;;11.18;;
60257;SDS011;46115;44.484;11.314;2022-12-18T14:44:29;13.85;;;10.48;;
60257;SDS011;46115;44.484;11.314;2022-12-18T14:48:35;15.75;;;11.85;;
60257;SDS011;46115;44.484;11.314;2022-12-18T14:52:42;15.40;;;11.27;;
60257;SDS011;46115;44.484;11.314;2022-12-18T14:56:46;14.73;;;11.40;;
60257;SDS011;46115;44.484;11.314;2022-12-18T15:00:50;19.35;;;12.60;;
60257;SDS011;46115;44.484;11.314;2022-12-18T15:05:01;15.07;;;11.73;;
60257;SDS011;46115;44.484;11.314;2022-12-18T15:09:20;16.33;;;12.02;;
60257;SDS011;46115;44.484;11.314;2022-12-18T15:13:24;14.07;;;11.43;;
60257;SDS011;46115;44.484;11.314;2022-12-18T15:17:27;19.60;;;12.05;;
60257;SDS011;46115;44.484;11.314;2022-12-18T15:21:31;17.48;;;12.48;;
60257;SDS011;46115;44.484;11.314;2022-12-18T15:25:34;16.95;;;13.02;;
60257;SDS011;46115;44.484;11.314;2022-12-18T15:29:39;19.63;;;11.88;;
60257;SDS011;46115;44.484;11.314;2022-12-18T15:33:42;16.70;;;11.95;;
60257;SDS011;46115;44.484;11.314;2022-12-18T15:37:48;18.30;;;13.13;;
60257;SDS011;46115;44.484;11.314;2022-12-18T15:41:52;15.50;;;12.15;;
60257;SDS011;46115;44.484;11.314;2022-12-18T15:46:13;14.20;;;11.70;;
60257;SDS011;46115;44.484;11.314;2022-12-18T15:50:16;16.85;;;12.45;;
60257;SDS011;46115;44.484;11.314;2022-12-18T23:06:07;30.83;;;20.88;;
60257;SDS011;46115;44.484;11.314;2022-12-18T23:10:11;43.00;;;22.58;;
60257;SDS011;46115;44.484;11.314;2022-12-18T23:18:16;37.63;;;23.02;;
60257;SDS011;46115;44.484;11.314;2022-12-18T23:22:20;48.50;;;27.75;;
60257;SDS011;46115;44.484;11.314;2022-12-18T23:26:23;64.32;;;32.00;;
60257;SDS011;46115;44.484;11.314;2022-12-18T23:30:26;51.17;;;27.95;;
60257;SDS011;46115;44.484;11.314;2022-12-18T23:38:32;52.80;;;28.13;;
60257;SDS011;46115;44.484;11.314;2022-12-18T23:42:35;39.20;;;24.80;;
60257;SDS011;46115;44.484;11.314;2022-12-18T23:46:38;44.75;;;24.30;;
60257;SDS011;46115;44.484;11.314;2022-12-18T23:54:44;49.20;;;25.42;;
60257;SDS011;46115;44.484;11.314;2022-12-18T23:58:46;63.00;;;30.95;;
